createdAt,value
2017-07-05T00:01:54.370Z,18.20
2017-07-05T00:04:20.950Z,18.20
2017-07-05T00:06:47.438Z,18.20
2017-07-05T00:09:14.085Z,18.20
2017-07-05T00:11:40.557Z,18.20
2017-07-05T00:14:07.839Z,18.10
2017-07-05T00:16:35.054Z,18.10
2017-07-05T00:19:01.555Z,18.10
2017-07-05T00:21:28.070Z,18.10
2017-07-05T00:23:54.604Z,18.10
2017-07-05T00:26:21.082Z,17.90
2017-07-05T00:28:47.617Z,18.00
2017-07-05T00:31:14.143Z,18.10
2017-07-05T00:33:40.746Z,18.10
2017-07-05T00:36:07.267Z,18.10
2017-07-05T00:38:33.790Z,18.10
2017-07-05T00:41:00.309Z,18.00
2017-07-05T00:43:26.913Z,17.90
2017-07-05T00:45:53.406Z,17.20
2017-07-05T00:48:19.942Z,17.90
2017-07-05T00:50:46.446Z,17.90
2017-07-05T00:53:12.945Z,17.90
2017-07-05T00:55:39.439Z,17.90
2017-07-05T00:58:05.943Z,17.60
2017-07-05T01:00:32.447Z,17.80
2017-07-05T01:02:59.012Z,17.80
2017-07-05T01:05:26.264Z,17.80
2017-07-05T01:07:52.734Z,17.90
2017-07-05T01:10:19.267Z,17.80
2017-07-05T01:12:45.768Z,17.80
2017-07-05T01:15:13.037Z,17.70
2017-07-05T01:17:40.282Z,17.70
2017-07-05T01:20:07.538Z,17.60
2017-07-05T01:22:34.039Z,17.60
2017-07-05T01:25:00.589Z,17.60
2017-07-05T01:27:27.837Z,17.60
2017-07-05T01:29:55.129Z,17.50
2017-07-05T01:32:21.655Z,17.10
2017-07-05T01:34:48.252Z,17.10
2017-07-05T01:37:15.585Z,17.20
2017-07-05T01:39:42.214Z,17.20
2017-07-05T01:42:08.733Z,17.30
2017-07-05T01:44:35.293Z,17.30
2017-07-05T01:47:01.857Z,17.30
2017-07-05T01:49:29.151Z,17.30
2017-07-05T01:51:55.689Z,17.30
2017-07-05T01:54:22.218Z,17.20
2017-07-05T01:56:48.764Z,16.90
2017-07-05T01:59:15.296Z,17.00
2017-07-05T02:01:41.813Z,16.60
2017-07-05T02:04:08.383Z,16.60
2017-07-05T02:06:34.878Z,16.30
2017-07-05T02:09:01.407Z,16.40
2017-07-05T02:11:27.922Z,16.50
2017-07-05T02:13:55.173Z,16.70
2017-07-05T02:16:22.404Z,16.80
2017-07-05T02:18:48.924Z,16.80
2017-07-05T02:21:15.435Z,17.00
2017-07-05T02:23:41.963Z,17.10
2017-07-05T02:26:08.462Z,17.20
2017-07-05T02:28:34.930Z,17.30
2017-07-05T02:31:01.461Z,17.40
2017-07-05T02:33:27.962Z,17.30
2017-07-05T02:35:54.532Z,17.20
2017-07-05T02:38:21.134Z,17.20
2017-07-05T02:40:47.670Z,17.20
2017-07-05T02:43:14.157Z,17.20
2017-07-05T02:45:40.697Z,17.00
2017-07-05T02:48:07.201Z,17.10
2017-07-05T02:50:33.706Z,17.10
2017-07-05T02:53:00.205Z,17.20
2017-07-05T02:55:26.748Z,17.20
2017-07-05T02:57:53.279Z,16.90
2017-07-05T03:00:19.836Z,17.00
2017-07-05T03:02:46.346Z,17.00
2017-07-05T03:05:12.858Z,17.00
2017-07-05T03:07:41.068Z,17.00
2017-07-05T03:10:08.011Z,17.10
2017-07-05T03:12:34.516Z,17.10
2017-07-05T03:15:01.016Z,17.00
2017-07-05T03:17:27.502Z,17.00
2017-07-05T03:19:54.025Z,17.00
2017-07-05T03:22:20.521Z,17.00
2017-07-05T03:24:47.056Z,16.90
2017-07-05T03:27:13.550Z,16.80
2017-07-05T03:29:40.072Z,16.80
2017-07-05T03:32:07.315Z,16.80
2017-07-05T03:34:33.816Z,16.80
2017-07-05T03:37:00.458Z,16.80
2017-07-05T03:39:26.997Z,16.80
2017-07-05T03:41:53.522Z,16.70
2017-07-05T03:44:20.030Z,16.70
2017-07-05T03:46:46.546Z,16.70
2017-07-05T03:49:13.795Z,16.70
2017-07-05T03:51:40.351Z,16.70
2017-07-05T03:54:06.862Z,16.70
2017-07-05T03:56:33.359Z,16.80
2017-07-05T03:58:59.932Z,16.80
2017-07-05T04:01:27.188Z,16.80
2017-07-05T04:03:53.786Z,16.80
2017-07-05T04:06:20.304Z,16.90
2017-07-05T04:08:46.792Z,16.20
2017-07-05T04:11:13.304Z,16.80
2017-07-05T04:13:39.823Z,16.70
2017-07-05T04:16:06.338Z,16.70
2017-07-05T04:18:32.910Z,16.80
2017-07-05T04:21:00.241Z,17.00
2017-07-05T04:23:26.754Z,17.00
2017-07-05T04:25:53.255Z,17.10
2017-07-05T04:28:19.749Z,17.20
2017-07-05T04:30:46.199Z,17.30
2017-07-05T04:33:12.674Z,17.40
2017-07-05T04:35:39.182Z,17.40
2017-07-05T04:38:05.715Z,17.40
2017-07-05T04:40:32.244Z,17.60
2017-07-05T04:42:58.742Z,17.60
2017-07-05T04:45:25.248Z,17.70
2017-07-05T04:47:51.775Z,17.80
2017-07-05T04:50:18.246Z,18.00
2017-07-05T04:52:44.736Z,18.30
2017-07-05T04:55:11.278Z,18.10
2017-07-05T04:57:37.750Z,18.90
2017-07-05T05:00:04.293Z,20.10
2017-07-05T05:02:30.839Z,20.80
2017-07-05T05:04:57.478Z,21.40
2017-07-05T05:07:23.966Z,22.20
2017-07-05T05:09:50.497Z,22.10
2017-07-05T05:12:17.011Z,22.90
2017-07-05T05:14:43.519Z,23.60
2017-07-05T05:17:10.047Z,23.80
2017-07-05T05:19:37.301Z,23.50
2017-07-05T05:22:03.815Z,23.50
2017-07-05T05:24:30.319Z,22.70
2017-07-05T05:26:56.832Z,23.50
2017-07-05T05:29:23.317Z,23.80
2017-07-05T05:31:49.852Z,23.90
2017-07-05T05:34:16.387Z,24.00
2017-07-05T05:36:43.558Z,23.50
2017-07-05T05:39:10.042Z,23.50
2017-07-05T05:41:36.543Z,23.50
2017-07-05T05:44:03.054Z,23.00
2017-07-05T05:46:29.694Z,22.30
2017-07-05T05:48:56.190Z,22.00
2017-07-05T05:51:22.735Z,22.10
2017-07-05T05:53:49.297Z,21.50
2017-07-05T05:56:15.831Z,21.20
2017-07-05T05:58:42.340Z,21.20
2017-07-05T06:01:09.595Z,21.80
2017-07-05T06:03:36.152Z,21.60
2017-07-05T06:06:02.662Z,21.70
2017-07-05T06:08:29.946Z,22.00
2017-07-05T06:10:56.481Z,22.00
2017-07-05T06:13:22.990Z,21.90
2017-07-05T06:15:50.340Z,22.20
2017-07-05T06:18:16.844Z,22.20
2017-07-05T06:20:44.137Z,22.40
2017-07-05T06:23:10.655Z,22.30
2017-07-05T06:25:37.162Z,22.40
2017-07-05T06:28:03.724Z,22.50
2017-07-05T06:30:30.991Z,22.10
2017-07-05T06:32:58.246Z,22.30
2017-07-05T06:35:24.765Z,22.30
2017-07-05T06:37:52.053Z,22.50
2017-07-05T06:40:25.512Z,22.40
2017-07-05T06:42:52.790Z,22.60
2017-07-05T06:45:19.310Z,22.60
2017-07-05T06:47:46.570Z,22.90
2017-07-05T06:50:13.070Z,22.90
2017-07-05T06:52:41.461Z,23.10
2017-07-05T06:55:07.983Z,23.20
2017-07-05T06:57:34.548Z,23.30
2017-07-05T07:00:01.024Z,23.30
2017-07-05T07:02:27.519Z,23.40
2017-07-05T07:04:54.004Z,23.10
2017-07-05T07:07:20.474Z,22.80
2017-07-05T07:09:47.055Z,23.10
2017-07-05T07:12:13.589Z,23.20
2017-07-05T07:14:40.104Z,23.40
2017-07-05T07:17:06.598Z,23.60
2017-07-05T07:19:33.142Z,23.70
2017-07-05T07:21:59.659Z,23.70
2017-07-05T07:24:26.188Z,23.70
2017-07-05T07:26:52.658Z,23.50
2017-07-05T07:29:19.167Z,23.50
2017-07-05T07:31:46.396Z,23.70
2017-07-05T07:34:12.927Z,23.60
2017-07-05T07:36:39.415Z,23.70
2017-07-05T07:39:05.966Z,23.70
2017-07-05T07:41:32.497Z,23.90
2017-07-05T07:43:59.036Z,24.10
2017-07-05T07:46:25.647Z,24.00
2017-07-05T07:48:52.244Z,23.30
2017-07-05T07:51:19.495Z,24.00
2017-07-05T07:53:46.055Z,24.00
2017-07-05T07:56:12.602Z,24.00
2017-07-05T07:58:39.165Z,24.20
2017-07-05T08:01:05.674Z,24.20
2017-07-05T08:03:32.237Z,24.30
2017-07-05T08:05:58.789Z,24.10
2017-07-05T08:08:26.082Z,24.00
2017-07-05T08:10:52.606Z,24.00
2017-07-05T08:13:19.157Z,23.90
2017-07-05T08:15:45.648Z,23.90
2017-07-05T08:18:12.137Z,23.70
2017-07-05T08:20:38.611Z,23.40
2017-07-05T08:23:05.144Z,23.30
2017-07-05T08:25:31.653Z,23.40
2017-07-05T08:27:58.144Z,23.40
2017-07-05T08:30:24.671Z,23.50
2017-07-05T08:32:51.922Z,23.60
2017-07-05T08:35:19.191Z,23.80
2017-07-05T08:37:45.719Z,23.80
2017-07-05T08:40:12.235Z,23.60
2017-07-05T08:42:46.496Z,23.80
2017-07-05T08:45:13.007Z,24.10
2017-07-05T08:47:39.489Z,23.80
2017-07-05T08:50:06.023Z,24.10
2017-07-05T08:52:32.507Z,24.00
2017-07-05T08:54:59.776Z,24.60
2017-07-05T08:57:26.314Z,24.50
2017-07-05T08:59:52.844Z,24.80
2017-07-05T09:02:19.347Z,24.70
2017-07-05T09:04:45.887Z,24.50
2017-07-05T09:07:13.222Z,24.40
2017-07-05T09:09:39.877Z,24.40
2017-07-05T09:12:06.350Z,24.60
2017-07-05T09:14:32.867Z,24.50
2017-07-05T09:16:59.425Z,24.80
2017-07-05T09:19:25.942Z,24.90
2017-07-05T09:21:52.485Z,24.60
2017-07-05T09:24:19.024Z,24.30
2017-07-05T09:26:45.542Z,24.50
2017-07-05T09:29:12.071Z,24.60
2017-07-05T09:31:38.820Z,24.60
2017-07-05T09:34:05.338Z,23.80
2017-07-05T09:36:31.831Z,24.10
2017-07-05T09:38:58.406Z,24.10
2017-07-05T09:41:24.926Z,24.00
2017-07-05T09:43:51.462Z,24.10
2017-07-05T09:46:17.979Z,24.20
2017-07-05T09:48:44.491Z,24.10
2017-07-05T09:51:11.007Z,23.90
2017-07-05T09:53:37.495Z,24.10
2017-07-05T09:56:04.043Z,24.30
2017-07-05T09:58:30.572Z,24.60
2017-07-05T10:00:57.109Z,25.00
2017-07-05T10:03:23.624Z,25.30
2017-07-05T10:05:50.136Z,25.60
2017-07-05T10:08:16.643Z,26.10
2017-07-05T10:10:43.270Z,26.40
2017-07-05T10:13:09.754Z,26.50
2017-07-05T10:15:36.254Z,26.20
2017-07-05T10:18:02.790Z,25.90
2017-07-05T10:20:29.319Z,26.10
2017-07-05T10:22:55.814Z,26.30
2017-07-05T10:25:22.342Z,25.60
2017-07-05T10:27:48.852Z,25.60
2017-07-05T10:30:16.113Z,24.60
2017-07-05T10:32:42.682Z,24.60
2017-07-05T10:35:09.172Z,24.60
2017-07-05T10:37:35.657Z,24.80
2017-07-05T10:40:02.208Z,25.00
2017-07-05T10:42:29.460Z,25.80
2017-07-05T10:44:56.762Z,26.20
2017-07-05T10:47:23.255Z,26.10
2017-07-05T10:49:49.758Z,26.50
2017-07-05T10:52:17.210Z,26.90
2017-07-05T10:54:43.690Z,27.40
2017-07-05T10:57:10.183Z,27.60
2017-07-05T11:02:09.855Z,27.30
2017-07-05T11:04:36.430Z,27.80
2017-07-05T11:07:03.028Z,28.20
2017-07-05T11:09:29.558Z,27.20
2017-07-05T11:11:56.096Z,27.40
2017-07-05T11:14:22.605Z,27.40
2017-07-05T11:16:49.913Z,26.40
2017-07-05T11:19:16.431Z,26.40
2017-07-05T11:21:42.981Z,26.00
2017-07-05T11:24:09.519Z,26.10
2017-07-05T11:26:36.057Z,26.20
2017-07-05T11:29:02.587Z,25.80
2017-07-05T11:31:29.118Z,25.90
2017-07-05T11:33:55.650Z,25.90
2017-07-05T11:36:22.153Z,26.10
2017-07-05T11:38:48.646Z,26.30
2017-07-05T11:41:15.204Z,26.20
2017-07-05T11:43:41.740Z,26.00
2017-07-05T11:46:08.324Z,26.00
2017-07-05T11:48:35.113Z,26.00
2017-07-05T11:51:01.654Z,26.30
2017-07-05T11:53:28.204Z,26.50
2017-07-05T11:55:55.462Z,27.10
2017-07-05T11:58:21.966Z,27.10
2017-07-05T12:00:49.254Z,27.80
2017-07-05T12:03:15.759Z,27.80
2017-07-05T12:05:42.395Z,28.20
2017-07-05T12:08:08.930Z,27.90
2017-07-05T12:10:35.504Z,28.10
2017-07-05T12:13:02.706Z,26.70
2017-07-05T12:15:29.203Z,26.60
2017-07-05T12:17:55.807Z,26.60
2017-07-05T12:20:22.527Z,27.50
2017-07-05T12:22:49.038Z,27.80
2017-07-05T12:25:15.529Z,27.80
2017-07-05T12:27:42.098Z,28.00
2017-07-05T12:30:08.574Z,27.30
2017-07-05T12:32:35.099Z,27.20
2017-07-05T12:35:01.603Z,27.40
2017-07-05T12:37:28.125Z,27.40
2017-07-05T12:39:54.646Z,27.50
2017-07-05T12:42:21.155Z,27.30
2017-07-05T12:44:47.686Z,27.10
2017-07-05T12:47:14.239Z,27.00
2017-07-05T12:49:40.722Z,27.30
2017-07-05T12:52:08.043Z,27.30
2017-07-05T12:54:34.530Z,27.30
2017-07-05T12:57:01.011Z,27.30
2017-07-05T12:59:27.507Z,27.50
2017-07-05T13:01:54.025Z,27.70
2017-07-05T13:04:20.531Z,27.50
2017-07-05T13:06:47.071Z,27.30
2017-07-05T13:09:13.570Z,27.50
2017-07-05T13:11:40.090Z,27.60
2017-07-05T13:14:06.575Z,27.60
2017-07-05T13:16:33.827Z,27.70
2017-07-05T13:19:01.164Z,27.40
2017-07-05T13:21:28.494Z,27.00
2017-07-05T13:23:55.068Z,27.00
2017-07-05T13:26:21.635Z,27.00
2017-07-05T13:28:48.142Z,27.30
2017-07-05T13:31:14.662Z,27.80
2017-07-05T13:33:41.202Z,27.80
2017-07-05T13:36:07.699Z,27.90
2017-07-05T13:38:34.222Z,28.40
2017-07-05T13:41:00.714Z,28.90
2017-07-05T13:43:27.250Z,28.90
2017-07-05T13:45:53.772Z,28.90
2017-07-05T13:48:20.358Z,29.10
2017-07-05T13:50:46.892Z,28.40
2017-07-05T13:53:13.371Z,28.00
2017-07-05T13:55:40.620Z,28.30
2017-07-05T13:58:07.899Z,28.30
2017-07-05T14:00:34.414Z,28.30
2017-07-05T14:03:00.977Z,28.50
2017-07-05T14:05:27.503Z,28.20
2017-07-05T14:07:54.760Z,28.00
2017-07-05T14:10:21.258Z,27.90
2017-07-05T14:12:47.749Z,27.90
2017-07-05T14:15:15.153Z,27.80
2017-07-05T14:17:42.400Z,27.40
2017-07-05T14:20:09.647Z,27.60
2017-07-05T14:22:36.154Z,27.60
2017-07-05T14:25:02.623Z,27.80
2017-07-05T14:27:29.139Z,28.00
2017-07-05T14:29:55.699Z,28.10
2017-07-05T14:32:22.923Z,27.30
2017-07-05T14:34:49.435Z,27.30
2017-07-05T14:37:15.922Z,27.30
2017-07-05T14:39:43.174Z,27.80
2017-07-05T14:42:10.399Z,27.50
2017-07-05T14:44:36.938Z,27.50
2017-07-05T14:47:03.524Z,27.50
2017-07-05T14:49:30.087Z,27.50
2017-07-05T14:51:56.566Z,27.30
2017-07-05T14:54:23.846Z,27.70
2017-07-05T14:56:50.362Z,27.70
2017-07-05T14:59:16.918Z,27.60
2017-07-05T15:01:43.410Z,27.50
2017-07-05T15:04:09.966Z,27.20
2017-07-05T15:06:36.457Z,27.10
2017-07-05T15:09:03.033Z,27.10
2017-07-05T15:11:29.537Z,27.20
2017-07-05T15:13:56.822Z,27.10
2017-07-05T15:16:23.319Z,27.10
2017-07-05T15:18:49.844Z,27.20
2017-07-05T15:21:16.418Z,27.20
2017-07-05T15:23:42.883Z,27.20
2017-07-05T15:26:09.402Z,27.20
2017-07-05T15:28:35.928Z,27.40
2017-07-05T15:31:02.442Z,27.40
2017-07-05T15:33:28.938Z,27.60
2017-07-05T15:35:56.178Z,27.30
2017-07-05T15:38:22.683Z,27.30
2017-07-05T15:40:49.194Z,26.80
2017-07-05T15:43:15.726Z,26.90
2017-07-05T15:45:42.235Z,26.90
2017-07-05T15:48:08.760Z,27.40
2017-07-05T15:50:35.293Z,26.90
2017-07-05T15:53:02.573Z,27.30
2017-07-05T15:55:29.131Z,27.20
2017-07-05T15:57:55.665Z,27.40
2017-07-05T16:00:22.203Z,27.30
2017-07-05T16:02:48.709Z,27.20
2017-07-05T16:05:15.257Z,26.80
2017-07-05T16:07:41.860Z,27.20
2017-07-05T16:10:08.405Z,27.10
2017-07-05T16:12:34.916Z,27.10
2017-07-05T16:15:01.459Z,27.10
2017-07-05T16:17:27.976Z,27.10
2017-07-05T16:19:54.520Z,27.20
2017-07-05T16:22:20.990Z,27.20
2017-07-05T16:24:47.496Z,26.70
2017-07-05T16:27:14.170Z,26.80
2017-07-05T16:29:40.730Z,26.90
2017-07-05T16:32:07.273Z,27.10
2017-07-05T16:34:33.804Z,26.70
2017-07-05T16:37:00.312Z,26.60
2017-07-05T16:39:26.888Z,26.10
2017-07-05T16:41:54.182Z,26.60
2017-07-05T16:44:21.426Z,26.60
2017-07-05T16:46:48.658Z,26.90
2017-07-05T16:49:15.133Z,26.90
2017-07-05T16:51:41.719Z,27.10
2017-07-05T16:54:08.258Z,26.90
2017-07-05T16:56:34.798Z,26.50
2017-07-05T16:59:01.281Z,26.50
2017-07-05T17:01:27.793Z,26.70
2017-07-05T17:03:55.043Z,26.60
2017-07-05T17:06:22.274Z,26.70
2017-07-05T17:08:48.732Z,26.70
2017-07-05T17:11:15.236Z,26.60
2017-07-05T17:13:41.749Z,26.70
2017-07-05T17:16:08.395Z,26.70
2017-07-05T17:18:34.983Z,26.60
2017-07-05T17:21:01.568Z,26.60
2017-07-05T17:23:28.054Z,26.90
2017-07-05T17:25:54.655Z,26.90
2017-07-05T17:28:21.226Z,26.70
2017-07-05T17:30:47.893Z,26.90
2017-07-05T17:33:14.484Z,26.90
2017-07-05T17:35:41.046Z,26.70
2017-07-05T17:38:07.705Z,26.90
2017-07-05T17:40:34.267Z,27.00
2017-07-05T17:43:00.756Z,27.10
2017-07-05T17:45:27.363Z,26.90
2017-07-05T17:47:53.854Z,27.00
2017-07-05T17:50:20.393Z,27.00
2017-07-05T17:52:46.923Z,27.10
2017-07-05T17:55:13.430Z,27.10
2017-07-05T17:57:40.029Z,27.10
2017-07-05T18:00:06.698Z,27.10
2017-07-05T18:02:33.293Z,26.90
2017-07-05T18:05:00.678Z,26.60
2017-07-05T18:07:27.160Z,26.60
2017-07-05T18:09:53.641Z,26.60
2017-07-05T18:12:20.268Z,26.60
2017-07-05T18:14:46.779Z,26.50
2017-07-05T18:17:14.224Z,26.60
2017-07-05T18:19:41.065Z,26.60
2017-07-05T18:22:08.489Z,26.60
2017-07-05T18:24:34.972Z,26.70
2017-07-05T18:27:01.503Z,26.50
2017-07-05T18:29:27.988Z,26.60
2017-07-05T18:31:54.495Z,26.30
2017-07-05T18:34:20.992Z,26.30
2017-07-05T18:36:47.522Z,26.40
2017-07-05T18:39:14.482Z,26.50
2017-07-05T18:41:41.107Z,26.40
2017-07-05T18:44:08.611Z,26.40
2017-07-05T18:46:35.418Z,26.30
2017-07-05T18:49:05.820Z,26.30
2017-07-05T18:51:33.090Z,26.30
2017-07-05T18:53:59.859Z,26.30
2017-07-05T18:56:26.378Z,26.30
2017-07-05T18:58:53.141Z,26.30
2017-07-05T19:01:21.600Z,26.00
2017-07-05T19:03:48.135Z,26.00
2017-07-05T19:06:15.484Z,26.00
2017-07-05T19:08:41.990Z,26.00
2017-07-05T19:11:08.484Z,25.90
2017-07-05T19:13:35.146Z,25.80
2017-07-05T19:16:01.672Z,25.80
2017-07-05T19:18:28.976Z,25.70
2017-07-05T19:20:55.588Z,25.60
2017-07-05T19:23:22.119Z,25.70
2017-07-05T19:25:48.709Z,25.60
2017-07-05T19:28:15.315Z,25.60
2017-07-05T19:30:41.816Z,25.50
2017-07-05T19:33:08.365Z,25.50
2017-07-05T19:35:35.042Z,25.40
2017-07-05T19:38:01.581Z,25.30
2017-07-05T19:40:29.527Z,25.20
2017-07-05T19:42:56.870Z,25.10
2017-07-05T19:45:23.395Z,25.40
2017-07-05T19:47:50.057Z,25.00
2017-07-05T19:50:16.883Z,24.90
2017-07-05T19:52:43.476Z,24.90
2017-07-05T19:55:10.186Z,24.80
2017-07-05T19:57:36.853Z,24.70
2017-07-05T20:00:04.554Z,24.70
2017-07-05T20:02:31.083Z,24.50
2017-07-05T20:04:57.617Z,24.50
2017-07-05T20:07:24.159Z,24.40
2017-07-05T20:09:50.679Z,24.30
2017-07-05T20:12:17.159Z,24.30
2017-07-05T20:14:43.638Z,24.20
2017-07-05T20:17:10.156Z,24.10
2017-07-05T20:19:37.406Z,24.00
2017-07-05T20:22:04.647Z,23.90
2017-07-05T20:24:31.127Z,23.80
2017-07-05T20:26:57.736Z,23.80
2017-07-05T20:29:24.202Z,23.80
2017-07-05T20:31:50.726Z,23.70
2017-07-05T20:34:17.248Z,23.60
2017-07-05T20:36:43.762Z,23.60
2017-07-05T20:39:10.356Z,23.50
2017-07-05T20:41:36.935Z,23.10
2017-07-05T20:44:03.506Z,23.40
2017-07-05T20:46:30.095Z,23.30
2017-07-05T20:48:56.702Z,23.30
2017-07-05T20:51:23.315Z,23.20
2017-07-05T20:53:49.875Z,23.20
2017-07-05T20:56:16.404Z,23.10
2017-07-05T20:58:42.916Z,23.10
2017-07-05T21:01:09.355Z,23.00
2017-07-05T21:03:36.127Z,23.00
2017-07-05T21:06:03.167Z,23.00
2017-07-05T21:08:30.115Z,23.00
2017-07-05T21:10:56.833Z,22.90
2017-07-05T21:13:23.874Z,22.90
2017-07-05T21:15:50.860Z,22.80
2017-07-05T21:18:17.630Z,22.80
2017-07-05T21:20:45.255Z,22.70
2017-07-05T21:23:12.601Z,22.60
2017-07-05T21:25:39.903Z,22.60
2017-07-05T21:28:07.216Z,22.50
2017-07-05T21:30:36.000Z,22.50
2017-07-05T21:33:03.708Z,22.40
2017-07-05T21:35:30.431Z,21.90
2017-07-05T21:37:57.047Z,22.40
2017-07-05T21:40:23.978Z,22.40
2017-07-05T21:42:51.903Z,22.30
2017-07-05T21:45:18.991Z,22.30
2017-07-05T21:47:46.259Z,22.20
2017-07-05T21:50:13.261Z,22.30
2017-07-05T21:52:40.342Z,22.20
2017-07-05T21:55:07.604Z,22.20
2017-07-05T21:57:34.887Z,22.10
2017-07-05T22:00:02.490Z,22.00
2017-07-05T22:02:29.445Z,22.00
2017-07-05T22:04:56.295Z,22.00
2017-07-05T22:07:23.514Z,22.00
2017-07-05T22:09:50.126Z,21.90
2017-07-05T22:12:17.448Z,21.90
2017-07-05T22:14:44.090Z,21.80
2017-07-05T22:17:10.695Z,21.80
2017-07-05T22:19:37.199Z,21.70
2017-07-05T22:22:03.734Z,21.60
2017-07-05T22:24:30.330Z,21.60
2017-07-05T22:26:56.829Z,21.50
2017-07-05T22:29:23.344Z,21.50
2017-07-05T22:31:49.840Z,21.40
2017-07-05T22:34:16.346Z,21.40
2017-07-05T22:36:43.591Z,21.20
2017-07-05T22:39:10.123Z,21.20
2017-07-05T22:41:36.622Z,21.00
2017-07-05T22:44:03.105Z,21.10
2017-07-05T22:46:29.938Z,21.00
2017-07-05T22:48:57.186Z,21.00
2017-07-05T22:51:24.426Z,21.20
2017-07-05T22:53:51.694Z,20.90
2017-07-05T22:56:18.926Z,20.80
2017-07-05T22:58:46.175Z,20.70
2017-07-05T23:01:12.690Z,20.70
2017-07-05T23:03:39.230Z,20.70
2017-07-05T23:06:05.738Z,21.10
2017-07-05T23:08:32.196Z,20.60
2017-07-05T23:10:58.694Z,20.60
2017-07-05T23:13:25.195Z,20.50
2017-07-05T23:15:51.712Z,20.40
2017-07-05T23:18:18.178Z,20.50
2017-07-05T23:20:44.687Z,20.40
2017-07-05T23:23:11.172Z,20.40
2017-07-05T23:25:37.774Z,20.40
2017-07-05T23:28:04.295Z,20.30
2017-07-05T23:30:30.827Z,20.20
2017-07-05T23:32:57.345Z,20.20
2017-07-05T23:35:23.818Z,20.20
2017-07-05T23:37:50.311Z,20.20
2017-07-05T23:40:16.809Z,20.10
2017-07-05T23:42:43.299Z,20.10
2017-07-05T23:45:09.839Z,20.10
2017-07-05T23:47:37.070Z,20.00
2017-07-05T23:50:03.637Z,20.00
2017-07-05T23:52:30.188Z,20.00
2017-07-05T23:54:56.735Z,20.00
2017-07-05T23:57:23.261Z,19.90
2017-07-05T23:59:49.796Z,19.90
